createdAt,value
2022-09-12T00:01:50.352Z,100.00
2022-09-12T00:04:17.176Z,100.00
2022-09-12T00:06:44.096Z,100.00
2022-09-12T00:09:14.171Z,100.00
2022-09-12T00:11:43.799Z,100.00
2022-09-12T00:14:12.854Z,100.00
2022-09-12T00:16:40.008Z,100.00
2022-09-12T00:19:07.796Z,100.00
2022-09-12T00:21:36.836Z,100.00
2022-09-12T00:24:04.612Z,100.00
2022-09-12T00:26:32.234Z,100.00
2022-09-12T00:28:58.952Z,100.00
2022-09-12T00:31:27.101Z,100.00
2022-09-12T00:33:56.825Z,100.00
2022-09-12T00:36:25.535Z,100.00
2022-09-12T00:38:54.757Z,100.00
2022-09-12T00:41:26.208Z,100.00
2022-09-12T00:44:24.233Z,100.00
2022-09-12T00:47:25.187Z,100.00
2022-09-12T00:50:12.802Z,100.00
2022-09-12T00:52:51.147Z,100.00
2022-09-12T00:55:22.436Z,100.00
2022-09-12T00:57:51.886Z,100.00
2022-09-12T01:00:22.630Z,100.00
2022-09-12T01:02:57.552Z,100.00
2022-09-12T01:05:25.910Z,100.00
2022-09-12T01:07:53.119Z,100.00
2022-09-12T01:10:20.351Z,100.00
2022-09-12T01:12:48.092Z,100.00
2022-09-12T01:15:14.827Z,100.00
2022-09-12T01:17:47.288Z,100.00
2022-09-12T01:20:26.611Z,100.00
2022-09-12T01:23:11.676Z,100.00
2022-09-12T01:25:59.612Z,100.00
2022-09-12T01:28:38.046Z,100.00
2022-09-12T01:31:21.464Z,100.00
2022-09-12T01:33:53.936Z,100.00
2022-09-12T01:37:04.891Z,100.00
2022-09-12T01:39:49.843Z,100.00
2022-09-12T01:42:28.399Z,100.00
2022-09-12T01:45:10.193Z,100.00
2022-09-12T01:47:42.261Z,100.00
2022-09-12T01:50:25.139Z,100.00
2022-09-12T01:53:02.343Z,100.00
2022-09-12T01:55:34.471Z,100.00
2022-09-12T01:58:09.828Z,100.00
2022-09-12T02:00:52.954Z,100.00
2022-09-12T02:03:25.665Z,100.00
2022-09-12T02:06:01.776Z,100.00
2022-09-12T02:08:37.017Z,100.00
2022-09-12T02:11:13.288Z,100.00
2022-09-12T02:13:48.428Z,100.00
2022-09-12T02:16:22.211Z,100.00
2022-09-12T02:18:57.633Z,100.00
2022-09-12T02:21:27.897Z,100.00
2022-09-12T02:23:59.561Z,100.00
2022-09-12T02:26:40.556Z,100.00
2022-09-12T02:29:07.514Z,100.00
2022-09-12T02:31:44.561Z,100.00
2022-09-12T02:34:49.439Z,100.00
2022-09-12T02:37:16.309Z,100.00
2022-09-12T02:39:45.361Z,100.00
2022-09-12T02:42:13.545Z,100.00
2022-09-12T02:44:41.254Z,100.00
2022-09-12T02:47:13.124Z,100.00
2022-09-12T02:49:39.900Z,100.00
2022-09-12T02:52:06.837Z,100.00
2022-09-12T02:54:33.735Z,100.00
2022-09-12T02:57:00.474Z,100.00
2022-09-12T02:59:27.629Z,100.00
2022-09-12T03:02:12.099Z,100.00
2022-09-12T03:05:08.539Z,100.00
2022-09-12T03:08:00.272Z,100.00
2022-09-12T03:10:41.209Z,100.00
2022-09-12T03:13:33.334Z,100.00
2022-09-12T03:16:16.916Z,100.00
2022-09-12T03:18:53.989Z,100.00
2022-09-12T03:21:30.567Z,100.00
2022-09-12T03:24:05.213Z,100.00
2022-09-12T03:26:36.506Z,100.00
2022-09-12T03:29:05.384Z,100.00
2022-09-12T03:31:32.062Z,100.00
2022-09-12T03:34:00.192Z,100.00
2022-09-12T03:36:29.803Z,100.00
2022-09-12T03:38:57.377Z,100.00
2022-09-12T03:41:24.233Z,100.00
2022-09-12T03:43:51.143Z,100.00
2022-09-12T03:46:17.849Z,100.00
2022-09-12T03:48:44.618Z,100.00
2022-09-12T03:51:11.683Z,100.00
2022-09-12T03:53:38.484Z,100.00
2022-09-12T03:56:10.511Z,100.00
2022-09-12T03:58:37.827Z,100.00
2022-09-12T04:01:13.375Z,100.00
2022-09-12T04:03:41.653Z,100.00
2022-09-12T04:06:10.347Z,100.00
2022-09-12T04:08:41.188Z,100.00
2022-09-12T04:11:13.452Z,100.00
2022-09-12T04:13:42.588Z,100.00
2022-09-12T04:16:09.537Z,100.00
2022-09-12T04:18:36.848Z,100.00
2022-09-12T04:21:08.759Z,100.00
2022-09-12T04:23:35.744Z,100.00
2022-09-12T04:26:06.539Z,100.00
2022-09-12T04:28:35.159Z,100.00
2022-09-12T04:31:07.707Z,100.00
2022-09-12T04:33:36.156Z,100.00
2022-09-12T04:36:04.754Z,100.00
2022-09-12T04:38:31.838Z,100.00
2022-09-12T04:40:58.543Z,100.00
2022-09-12T04:43:25.369Z,100.00
2022-09-12T04:45:52.095Z,100.00
2022-09-12T04:48:19.123Z,100.00
2022-09-12T04:50:45.815Z,100.00
2022-09-12T04:53:12.495Z,100.00
2022-09-12T04:55:39.125Z,100.00
2022-09-12T04:58:05.772Z,100.00
2022-09-12T05:00:33.435Z,100.00
2022-09-12T05:03:00.367Z,100.00
2022-09-12T05:05:27.581Z,100.00
2022-09-12T05:07:54.259Z,100.00
2022-09-12T05:10:20.936Z,100.00
2022-09-12T05:12:48.407Z,100.00
2022-09-12T05:15:15.200Z,100.00
2022-09-12T05:17:41.853Z,100.00
2022-09-12T05:20:09.589Z,100.00
2022-09-12T05:22:36.343Z,100.00
2022-09-12T05:25:03.133Z,100.00
2022-09-12T05:27:29.869Z,100.00
2022-09-12T05:29:56.693Z,100.00
2022-09-12T05:32:23.403Z,100.00
2022-09-12T05:34:50.958Z,100.00
2022-09-12T05:37:17.749Z,100.00
2022-09-12T05:39:44.479Z,100.00
2022-09-12T05:42:11.988Z,100.00
2022-09-12T05:44:38.709Z,100.00
2022-09-12T05:47:05.614Z,100.00
2022-09-12T05:49:32.323Z,100.00
2022-09-12T05:51:59.045Z,100.00
2022-09-12T05:54:31.372Z,100.00
2022-09-12T05:56:58.568Z,100.00
2022-09-12T05:59:25.609Z,100.00
2022-09-12T06:01:52.528Z,100.00
2022-09-12T06:04:19.249Z,100.00
2022-09-12T06:06:46.471Z,100.00
2022-09-12T06:09:15.519Z,100.00
2022-09-12T06:11:43.061Z,100.00
2022-09-12T06:14:12.838Z,100.00
2022-09-12T06:16:40.084Z,100.00
2022-09-12T06:19:13.127Z,100.00
2022-09-12T06:21:40.141Z,100.00
2022-09-12T06:24:07.758Z,100.00
2022-09-12T06:26:35.632Z,100.00
2022-09-12T06:29:02.451Z,100.00
2022-09-12T06:31:31.971Z,100.00
2022-09-12T06:34:02.121Z,100.00
2022-09-12T06:36:34.136Z,100.00
2022-09-12T06:39:04.266Z,100.00
2022-09-12T06:41:32.064Z,100.00
2022-09-12T06:43:59.539Z,100.00
2022-09-12T06:46:27.067Z,100.00
2022-09-12T06:48:56.196Z,100.00
2022-09-12T06:51:23.162Z,100.00
2022-09-12T06:53:50.372Z,98.76
2022-09-12T06:56:22.540Z,97.00
2022-09-12T06:58:50.740Z,100.00
2022-09-12T07:01:23.410Z,95.46
2022-09-12T07:03:59.434Z,97.30
2022-09-12T07:06:32.172Z,100.00
2022-09-12T07:09:00.451Z,94.23
2022-09-12T07:11:32.193Z,96.48
2022-09-12T07:14:00.904Z,94.19
2022-09-12T07:16:28.392Z,86.75
2022-09-12T07:18:57.758Z,78.52
2022-09-12T07:21:24.810Z,79.02
2022-09-12T07:23:52.159Z,76.59
2022-09-12T07:26:19.286Z,79.45
2022-09-12T07:28:46.071Z,75.68
2022-09-12T07:31:15.238Z,72.44
2022-09-12T07:33:42.949Z,73.83
2022-09-12T07:36:15.144Z,78.73
2022-09-12T07:38:43.813Z,68.33
2022-09-12T07:41:21.481Z,72.84
2022-09-12T07:43:48.379Z,68.14
2022-09-12T07:46:15.271Z,68.72
2022-09-12T07:48:42.019Z,65.28
2022-09-12T07:51:10.942Z,68.27
2022-09-12T07:53:40.996Z,66.67
2022-09-12T07:56:10.432Z,61.04
2022-09-12T07:58:39.215Z,61.90
2022-09-12T08:01:07.466Z,63.14
2022-09-12T08:03:37.296Z,58.93
2022-09-12T08:06:04.921Z,63.21
2022-09-12T08:08:31.768Z,58.88
2022-09-12T08:11:06.050Z,59.92
2022-09-12T08:13:34.755Z,59.54
2022-09-12T08:16:04.992Z,61.52
2022-09-12T08:18:32.858Z,57.65
2022-09-12T08:21:01.606Z,57.78
2022-09-12T08:23:29.409Z,59.37
2022-09-12T08:26:05.280Z,58.93
2022-09-12T08:28:34.480Z,56.88
2022-09-12T08:31:06.258Z,56.92
2022-09-12T08:33:33.763Z,57.19
2022-09-12T08:36:07.697Z,57.82
2022-09-12T08:38:35.988Z,54.14
2022-09-12T08:41:18.056Z,54.80
2022-09-12T08:44:03.578Z,55.36
2022-09-12T08:46:39.125Z,54.98
2022-09-12T08:49:12.166Z,56.48
2022-09-12T08:51:40.116Z,55.44
2022-09-12T08:54:20.556Z,56.19
2022-09-12T08:56:48.408Z,52.83
2022-09-12T08:59:15.784Z,51.76
2022-09-12T09:01:45.730Z,52.97
2022-09-12T09:04:41.727Z,52.37
2022-09-12T09:07:19.188Z,54.86
2022-09-12T09:10:07.906Z,54.50
2022-09-12T09:12:55.746Z,52.44
2022-09-12T09:15:34.545Z,50.38
2022-09-12T09:18:32.980Z,50.09
2022-09-12T09:21:10.487Z,53.52
2022-09-12T09:23:45.030Z,51.01
2022-09-12T09:26:28.289Z,49.24
2022-09-12T09:29:10.401Z,47.71
2022-09-12T09:31:42.316Z,49.26
2022-09-12T09:34:23.651Z,50.68
2022-09-12T09:37:09.790Z,49.19
2022-09-12T09:39:45.261Z,49.80
2022-09-12T09:42:18.224Z,49.04
2022-09-12T09:44:48.392Z,48.59
2022-09-12T09:47:16.573Z,47.84
2022-09-12T09:49:43.330Z,46.89
2022-09-12T09:52:14.952Z,46.82
2022-09-12T09:54:49.586Z,47.70
2022-09-12T09:57:34.656Z,48.86
2022-09-12T10:00:33.020Z,48.59
2022-09-12T10:03:14.595Z,46.94
2022-09-12T10:05:51.363Z,46.57
2022-09-12T10:08:38.039Z,47.45
2022-09-12T10:11:19.699Z,46.82
2022-09-12T10:14:05.456Z,48.14
2022-09-12T10:16:34.764Z,45.81
2022-09-12T10:19:03.307Z,43.90
2022-09-12T10:21:41.282Z,44.81
2022-09-12T10:24:42.409Z,45.10
2022-09-12T10:27:12.071Z,45.49
2022-09-12T10:29:52.451Z,46.53
2022-09-12T10:32:36.214Z,45.04
2022-09-12T10:35:09.139Z,44.28
2022-09-12T10:37:41.544Z,45.17
2022-09-12T10:40:23.992Z,43.63
2022-09-12T10:42:53.333Z,43.49
2022-09-12T10:45:24.812Z,44.29
2022-09-12T10:47:53.660Z,43.52
2022-09-12T10:50:26.843Z,45.57
2022-09-12T10:53:19.299Z,44.13
2022-09-12T10:55:56.273Z,43.73
2022-09-12T10:58:32.433Z,43.38
2022-09-12T11:01:16.791Z,44.16
2022-09-12T11:04:01.903Z,41.34
2022-09-12T11:06:54.730Z,42.47
2022-09-12T11:09:31.417Z,42.19
2022-09-12T11:11:58.082Z,42.31
2022-09-12T11:14:52.524Z,41.55
2022-09-12T11:17:25.493Z,41.81
2022-09-12T11:20:21.261Z,40.95
2022-09-12T11:23:14.021Z,40.16
2022-09-12T11:26:04.441Z,42.38
2022-09-12T11:28:34.618Z,40.98
2022-09-12T11:31:16.737Z,41.20
2022-09-12T11:33:53.092Z,41.37
2022-09-12T11:36:32.340Z,40.73
2022-09-12T11:39:22.169Z,41.85
2022-09-12T11:41:57.786Z,41.43
2022-09-12T11:44:40.357Z,39.96
2022-09-12T11:47:14.639Z,40.53
2022-09-12T11:49:41.232Z,40.28
2022-09-12T11:52:16.294Z,40.57
2022-09-12T11:54:52.796Z,41.35
2022-09-12T11:57:38.861Z,39.83
2022-09-12T12:00:06.204Z,37.96
2022-09-12T12:02:57.779Z,38.70
2022-09-12T12:05:28.964Z,37.83
2022-09-12T12:07:58.792Z,38.07
2022-09-12T12:10:39.179Z,39.72
2022-09-12T12:13:16.484Z,39.36
2022-09-12T12:15:53.629Z,37.66
2022-09-12T12:18:24.958Z,38.60
2022-09-12T12:20:53.837Z,39.25
2022-09-12T12:23:31.578Z,39.71
2022-09-12T12:26:01.073Z,39.51
2022-09-12T12:28:58.966Z,38.90
2022-09-12T12:31:25.867Z,37.79
2022-09-12T12:33:54.923Z,38.42
2022-09-12T12:36:40.448Z,36.87
2022-09-12T12:39:32.074Z,38.40
2022-09-12T12:42:00.079Z,38.11
2022-09-12T12:44:45.079Z,37.58
2022-09-12T12:47:27.672Z,37.43
2022-09-12T12:50:14.579Z,38.06
2022-09-12T12:53:06.015Z,38.99
2022-09-12T12:55:41.672Z,39.26
2022-09-12T12:58:31.975Z,38.42
2022-09-12T13:01:19.591Z,38.14
2022-09-12T13:03:54.639Z,38.21
2022-09-12T13:06:39.835Z,37.24
2022-09-12T13:09:09.497Z,36.42
2022-09-12T13:11:39.082Z,38.54
2022-09-12T13:14:27.389Z,40.45
2022-09-12T13:16:58.765Z,42.05
2022-09-12T13:19:32.568Z,40.37
2022-09-12T13:22:05.145Z,39.75
2022-09-12T13:24:32.496Z,36.89
2022-09-12T13:26:59.564Z,37.63
2022-09-12T13:29:28.099Z,37.79
2022-09-12T13:32:03.939Z,39.30
2022-09-12T13:34:37.392Z,40.59
2022-09-12T13:37:10.223Z,40.35
2022-09-12T13:39:46.305Z,38.39
2022-09-12T13:42:41.285Z,35.97
2022-09-12T13:45:15.120Z,36.88
2022-09-12T13:47:44.617Z,37.17
2022-09-12T13:50:21.425Z,37.26
2022-09-12T13:55:53.723Z,35.78
2022-09-12T13:58:24.482Z,35.41
2022-09-12T14:01:01.601Z,37.46
2022-09-12T14:03:51.171Z,37.29
2022-09-12T14:06:20.215Z,39.17
2022-09-12T14:08:48.381Z,40.70
2022-09-12T14:11:28.739Z,43.14
2022-09-12T14:13:56.097Z,43.24
2022-09-12T14:16:24.167Z,43.83
2022-09-12T14:18:54.697Z,44.46
2022-09-12T14:21:24.643Z,43.04
2022-09-12T14:23:51.524Z,43.09
2022-09-12T14:26:18.783Z,43.91
2022-09-12T14:28:49.784Z,45.32
2022-09-12T14:31:22.229Z,45.63
2022-09-12T14:34:09.007Z,45.11
2022-09-12T14:36:42.389Z,44.98
2022-09-12T14:39:22.366Z,45.73
2022-09-12T14:41:50.105Z,45.16
2022-09-12T14:44:24.799Z,45.45
2022-09-12T14:46:51.953Z,44.83
2022-09-12T14:49:21.378Z,45.34
2022-09-12T14:51:51.445Z,45.46
2022-09-12T14:54:30.425Z,45.35
2022-09-12T14:56:59.749Z,46.48
2022-09-12T14:59:35.476Z,46.82
2022-09-12T15:02:17.136Z,46.37
2022-09-12T15:04:47.448Z,46.83
2022-09-12T15:07:35.326Z,47.44
2022-09-12T15:10:05.544Z,47.65
2022-09-12T15:12:32.285Z,47.60
2022-09-12T15:15:17.200Z,48.62
2022-09-12T15:17:44.107Z,49.28
2022-09-12T15:20:12.131Z,49.43
2022-09-12T15:22:39.749Z,48.91
2022-09-12T15:25:07.028Z,49.14
2022-09-12T15:27:33.755Z,48.81
2022-09-12T15:30:00.584Z,49.89
2022-09-12T15:32:30.183Z,50.68
2022-09-12T15:34:57.039Z,50.67
2022-09-12T15:37:24.861Z,51.16
2022-09-12T15:39:52.058Z,51.48
2022-09-12T15:42:27.987Z,51.94
2022-09-12T15:44:58.398Z,52.64
2022-09-12T15:47:27.407Z,53.00
2022-09-12T15:49:54.075Z,52.88
2022-09-12T15:52:20.757Z,53.51
2022-09-12T15:54:47.598Z,54.53
2022-09-12T15:57:14.323Z,55.36
2022-09-12T15:59:40.970Z,55.81
2022-09-12T16:02:09.995Z,56.83
2022-09-12T16:04:41.693Z,57.08
2022-09-12T16:07:08.345Z,57.36
2022-09-12T16:09:35.102Z,56.91
2022-09-12T16:12:02.152Z,57.51
2022-09-12T16:14:29.024Z,55.94
2022-09-12T16:16:58.471Z,55.71
2022-09-12T16:19:26.540Z,57.45
2022-09-12T16:21:53.199Z,58.34
2022-09-12T16:24:19.897Z,58.46
2022-09-12T16:26:46.656Z,59.15
2022-09-12T16:29:14.529Z,58.52
2022-09-12T16:31:41.204Z,59.85
2022-09-12T16:34:07.999Z,60.26
2022-09-12T16:36:34.689Z,60.34
2022-09-12T16:39:01.513Z,61.33
2022-09-12T16:41:28.414Z,62.58
2022-09-12T16:43:55.794Z,64.71
2022-09-12T16:46:25.270Z,66.20
2022-09-12T16:48:54.525Z,66.37
2022-09-12T16:51:30.995Z,66.13
2022-09-12T16:53:58.012Z,67.91
2022-09-12T16:56:25.821Z,69.26
2022-09-12T16:58:53.336Z,70.45
2022-09-12T17:01:24.858Z,70.89
2022-09-12T17:03:56.670Z,73.98
2022-09-12T17:06:25.281Z,75.59
2022-09-12T17:08:54.167Z,76.18
2022-09-12T17:11:23.583Z,77.87
2022-09-12T17:14:04.321Z,80.71
2022-09-12T17:16:33.448Z,82.01
2022-09-12T17:19:00.232Z,82.35
2022-09-12T17:21:27.156Z,81.46
2022-09-12T17:23:54.383Z,82.12
2022-09-12T17:26:21.095Z,81.92
2022-09-12T17:28:47.868Z,84.75
2022-09-12T17:31:15.173Z,81.75
2022-09-12T17:33:42.334Z,82.84
2022-09-12T17:36:12.204Z,81.95
2022-09-12T17:38:39.957Z,82.18
2022-09-12T17:41:08.348Z,84.29
2022-09-12T17:43:39.578Z,85.20
2022-09-12T17:46:06.596Z,85.92
2022-09-12T17:48:33.723Z,86.84
2022-09-12T17:51:10.804Z,87.78
2022-09-12T17:53:38.333Z,87.79
2022-09-12T17:56:06.124Z,88.52
2022-09-12T17:58:33.938Z,88.46
2022-09-12T18:01:37.910Z,88.28
2022-09-12T18:04:04.853Z,87.35
2022-09-12T18:06:32.960Z,87.32
2022-09-12T18:09:06.044Z,83.85
2022-09-12T18:11:33.370Z,81.45
2022-09-12T18:14:00.592Z,78.67
2022-09-12T18:16:28.589Z,77.69
2022-09-12T18:18:55.557Z,82.08
2022-09-12T18:21:22.308Z,88.36
2022-09-12T18:23:49.108Z,90.10
2022-09-12T18:26:15.988Z,92.31
2022-09-12T18:28:44.612Z,96.78
2022-09-12T18:31:17.563Z,96.88
2022-09-12T18:33:44.368Z,93.28
2022-09-12T18:36:14.331Z,92.17
2022-09-12T18:38:42.347Z,97.91
2022-09-12T18:41:15.027Z,100.00
2022-09-12T18:43:42.438Z,100.00
2022-09-12T18:46:17.833Z,100.00
2022-09-12T18:48:45.790Z,96.08
2022-09-12T18:51:14.781Z,96.87
2022-09-12T18:53:42.559Z,95.47
2022-09-12T18:56:12.221Z,97.33
2022-09-12T18:58:40.740Z,98.15
2022-09-12T19:01:16.610Z,99.63
2022-09-12T19:03:43.987Z,99.40
2022-09-12T19:06:31.236Z,97.26
2022-09-12T19:09:00.157Z,100.00
2022-09-12T19:11:29.477Z,100.00
2022-09-12T19:13:56.742Z,100.00
2022-09-12T19:16:26.992Z,100.00
2022-09-12T19:18:56.096Z,100.00
2022-09-12T19:21:26.192Z,100.00
2022-09-12T19:23:55.967Z,100.00
2022-09-12T19:26:23.051Z,100.00
2022-09-12T19:28:49.949Z,100.00
2022-09-12T19:31:20.200Z,100.00
2022-09-12T19:33:48.221Z,100.00
2022-09-12T19:36:41.164Z,100.00
2022-09-12T19:39:07.178Z,100.00
2022-09-12T19:41:34.914Z,100.00
2022-09-12T19:44:02.108Z,100.00
2022-09-12T19:46:28.841Z,100.00
2022-09-12T19:48:55.677Z,100.00
2022-09-12T19:51:24.280Z,100.00
2022-09-12T19:53:51.359Z,100.00
2022-09-12T19:56:19.002Z,100.00
2022-09-12T19:58:49.856Z,100.00
2022-09-12T20:01:30.214Z,100.00
2022-09-12T20:03:58.176Z,100.00
2022-09-12T20:06:26.274Z,100.00
2022-09-12T20:08:53.068Z,100.00
2022-09-12T20:11:23.955Z,100.00
2022-09-12T20:13:51.152Z,100.00
2022-09-12T20:16:22.362Z,100.00
2022-09-12T20:18:55.714Z,100.00
2022-09-12T20:21:25.510Z,100.00
2022-09-12T20:23:52.724Z,99.88
2022-09-12T20:26:20.465Z,96.24
2022-09-12T20:28:47.432Z,92.25
2022-09-12T20:31:16.658Z,92.24
2022-09-12T20:33:43.971Z,89.35
2022-09-12T20:36:17.731Z,90.89
2022-09-12T20:38:57.150Z,94.72
2022-09-12T20:41:25.629Z,91.50
2022-09-12T20:43:53.420Z,93.75
2022-09-12T20:46:22.166Z,90.59
2022-09-12T20:48:50.006Z,90.40
2022-09-12T20:51:17.052Z,91.43
2022-09-12T20:53:43.775Z,92.81
2022-09-12T20:56:10.532Z,99.06
2022-09-12T20:58:40.505Z,100.00
2022-09-12T21:01:11.816Z,100.00
2022-09-12T21:03:39.837Z,100.00
2022-09-12T21:06:08.418Z,100.00
2022-09-12T21:08:36.192Z,100.00
2022-09-12T21:11:03.616Z,100.00
2022-09-12T21:13:30.299Z,100.00
2022-09-12T21:16:02.072Z,100.00
2022-09-12T21:18:29.383Z,100.00
2022-09-12T21:20:56.826Z,100.00
2022-09-12T21:23:25.401Z,100.00
2022-09-12T21:25:52.919Z,100.00
2022-09-12T21:28:20.507Z,99.17
2022-09-12T21:30:51.854Z,97.97
2022-09-12T21:33:20.290Z,98.18
2022-09-12T21:35:47.594Z,98.75
2022-09-12T21:38:18.645Z,96.70
2022-09-12T21:40:46.768Z,97.00
2022-09-12T21:43:14.173Z,95.88
2022-09-12T21:45:40.930Z,93.41
2022-09-12T21:48:07.785Z,90.68
2022-09-12T21:50:34.716Z,91.23
2022-09-12T21:53:01.641Z,92.41
2022-09-12T21:55:28.419Z,95.56
2022-09-12T21:57:55.596Z,94.22
2022-09-12T22:00:23.025Z,94.66
2022-09-12T22:02:49.849Z,95.70
2022-09-12T22:05:17.273Z,97.96
2022-09-12T22:07:44.045Z,97.57
2022-09-12T22:10:11.137Z,99.62
2022-09-12T22:12:37.781Z,100.00
2022-09-12T22:15:22.831Z,100.00
2022-09-12T22:17:52.046Z,100.00
2022-09-12T22:20:18.877Z,100.00
2022-09-12T22:23:03.967Z,100.00
2022-09-12T22:25:30.997Z,100.00
2022-09-12T22:27:58.430Z,100.00
2022-09-12T22:30:27.990Z,100.00
2022-09-12T22:32:54.762Z,100.00
2022-09-12T22:35:21.492Z,100.00
2022-09-12T22:37:48.184Z,100.00
2022-09-12T22:40:15.833Z,100.00
2022-09-12T22:42:42.946Z,100.00
2022-09-12T22:45:10.055Z,100.00
2022-09-12T22:47:36.931Z,100.00
2022-09-12T22:50:04.366Z,100.00
2022-09-12T22:52:31.150Z,100.00
2022-09-12T22:54:58.679Z,100.00
2022-09-12T22:57:25.842Z,100.00
2022-09-12T22:59:52.535Z,100.00
2022-09-12T23:02:19.250Z,100.00
2022-09-12T23:04:47.063Z,100.00
2022-09-12T23:07:13.800Z,100.00
2022-09-12T23:09:40.655Z,100.00
2022-09-12T23:12:07.525Z,100.00
2022-09-12T23:14:36.575Z,100.00
2022-09-12T23:17:04.753Z,100.00
2022-09-12T23:19:31.423Z,100.00
2022-09-12T23:21:58.122Z,100.00
2022-09-12T23:24:24.834Z,100.00
2022-09-12T23:26:51.505Z,100.00
2022-09-12T23:29:18.194Z,100.00
2022-09-12T23:31:45.079Z,100.00
2022-09-12T23:34:11.764Z,100.00
2022-09-12T23:36:38.458Z,100.00
2022-09-12T23:39:05.394Z,100.00
2022-09-12T23:41:32.324Z,100.00
2022-09-12T23:43:59.096Z,100.00
2022-09-12T23:46:25.917Z,100.00
2022-09-12T23:48:53.651Z,100.00
2022-09-12T23:51:21.908Z,100.00
2022-09-12T23:53:49.014Z,100.00
2022-09-12T23:56:15.949Z,100.00
2022-09-12T23:58:42.731Z,100.00
